Fallon, North Dakota
Current Conditions -  °F | °C
As of 6:15 PM on Sunday 23 Nov 2014 (Local Time) from KY19 Reporting Station
Light Snow Light Snow  
Wind Chill:   Ceiling: 2000
Heat Index: 21°   Visibility: 10mi
Dew Point: 14°   Wind: 23mph
Humidity: 74%   Direction: 320°NW
Pressure: 29.65"   Gusts: 32mph
Location:  46.4673°N, 101.102°W
Report Text: KY19 240015Z AUTO 32020G28KT 10SM -SN OVC020 M06/M10 A2965 RMK AO2
Loading
Personal Weather Stations






























Interactive Weather Map New forecast layout! Learn more

10-Day Weather Forecast

Advertisements
Track Severe Weather on mobile